createdAt,value
2022-12-01T00:01:15.575Z,99200.28
2022-12-01T00:03:42.971Z,99193.22
2022-12-01T00:06:12.768Z,99204.41
2022-12-01T00:08:39.567Z,99198.41
2022-12-01T00:11:09.516Z,99205.44
2022-12-01T00:13:36.863Z,99201.94
2022-12-01T00:16:14.394Z,99186.81
2022-12-01T00:18:41.319Z,99183.91
2022-12-01T00:21:14.809Z,99189.31
2022-12-01T00:23:47.409Z,99192.19
2022-12-01T00:26:15.809Z,99195.72
2022-12-01T00:28:42.730Z,99198.41
2022-12-01T00:31:10.886Z,99201.72
2022-12-01T00:33:38.268Z,99203.59
2022-12-01T00:36:05.911Z,99208.78
2022-12-01T00:38:33.587Z,99207.13
2022-12-01T00:41:00.628Z,99205.03
2022-12-01T00:43:27.562Z,99208.56
2022-12-01T00:45:56.465Z,99210.63
2022-12-01T00:48:23.893Z,99212.28
2022-12-01T00:50:52.689Z,99209.81
2022-12-01T00:53:19.810Z,99205.44
2022-12-01T00:55:46.723Z,99214.97
2022-12-01T00:58:13.545Z,99212.50
2022-12-01T01:00:40.338Z,99212.06
2022-12-01T01:03:07.698Z,99214.56
2022-12-01T01:05:39.881Z,99210.63
2022-12-01T01:08:08.457Z,99208.56
2022-12-01T01:10:41.677Z,99207.13
2022-12-01T01:13:09.221Z,99214.16
2022-12-01T01:15:36.424Z,99207.53
2022-12-01T01:18:04.137Z,99207.53
2022-12-01T01:20:31.355Z,99202.13
2022-12-01T01:22:58.207Z,99197.16
2022-12-01T01:25:25.543Z,99206.28
2022-12-01T01:27:52.407Z,99205.03
2022-12-01T01:30:19.426Z,99198.81
2022-12-01T01:32:46.194Z,99207.13
2022-12-01T01:35:13.051Z,99204.22
2022-12-01T01:37:39.839Z,99199.25
2022-12-01T01:40:07.084Z,99204.62
2022-12-01T01:42:34.035Z,99205.25
2022-12-01T01:45:00.884Z,99212.91
2022-12-01T01:47:30.632Z,99212.91
2022-12-01T01:50:05.855Z,99214.34
2022-12-01T01:52:36.567Z,99210.22
2022-12-01T01:55:03.575Z,99208.78
2022-12-01T01:57:33.398Z,99212.69
2022-12-01T02:00:12.952Z,99220.38
2022-12-01T02:02:44.944Z,99205.88
2022-12-01T02:05:25.042Z,99208.78
2022-12-01T02:07:55.225Z,99211.88
2022-12-01T02:10:31.036Z,99212.69
2022-12-01T02:13:30.518Z,99209.19
2022-12-01T02:16:03.115Z,99204.19
2022-12-01T02:18:58.851Z,99206.44
2022-12-01T02:21:37.226Z,99202.09
2022-12-01T02:24:45.692Z,99208.09
2022-12-01T02:27:29.572Z,99201.91
2022-12-01T02:30:25.700Z,99186.16
2022-12-01T02:32:56.962Z,99184.91
2022-12-01T02:35:41.670Z,99185.53
2022-12-01T02:38:08.398Z,99183.25
2022-12-01T02:41:07.528Z,99182.62
2022-12-01T02:43:46.110Z,99182.66
2022-12-01T02:46:19.927Z,99192.19
2022-12-01T02:48:51.202Z,99193.03
2022-12-01T02:51:24.760Z,99186.19
2022-12-01T02:53:52.675Z,99185.97
2022-12-01T02:56:22.282Z,99189.72
2022-12-01T02:58:49.122Z,99191.56
2022-12-01T03:01:32.393Z,99189.72
2022-12-01T03:04:37.055Z,99196.53
2022-12-01T03:07:54.440Z,99190.97
2022-12-01T03:10:45.602Z,99188.06
2022-12-01T03:13:24.444Z,99188.47
2022-12-01T03:16:09.139Z,99182.66
2022-12-01T03:18:42.390Z,99178.75
2022-12-01T03:21:38.112Z,99182.47
2022-12-01T03:24:11.646Z,99175.44
2022-12-01T03:26:42.508Z,99176.47
2022-12-01T03:29:16.810Z,99171.28
2022-12-01T03:31:48.026Z,99175.63
2022-12-01T03:34:29.494Z,99182.47
2022-12-01T03:37:01.640Z,99184.13
2022-12-01T03:39:35.826Z,99174.19
2022-12-01T03:42:11.315Z,99181.44
2022-12-01T03:44:54.075Z,99184.13
2022-12-01T03:47:24.975Z,99172.31
2022-12-01T03:49:53.537Z,99177.69
2022-12-01T03:52:23.112Z,99177.69
2022-12-01T03:55:02.412Z,99181.22
2022-12-01T03:57:40.873Z,99183.09
2022-12-01T04:00:08.553Z,99181.84
2022-12-01T04:02:37.472Z,99193.44
2022-12-01T04:05:09.396Z,99190.34
2022-12-01T04:07:37.944Z,99191.38
2022-12-01T04:10:06.311Z,99186.81
2022-12-01T04:12:33.654Z,99190.97
2022-12-01T04:15:03.259Z,99190.12
2022-12-01T04:17:30.806Z,99185.97
2022-12-01T04:19:57.887Z,99187.66
2022-12-01T04:22:25.384Z,99178.75
2022-12-01T04:24:53.143Z,99182.25
2022-12-01T04:27:20.375Z,99181.22
2022-12-01T04:29:47.892Z,99183.50
2022-12-01T04:32:14.925Z,99180.19
2022-12-01T04:34:42.220Z,99184.75
2022-12-01T04:37:10.118Z,99179.56
2022-12-01T04:39:37.267Z,99187.66
2022-12-01T04:42:04.749Z,99188.25
2022-12-01T04:44:34.779Z,99189.31
2022-12-01T04:47:03.904Z,99190.12
2022-12-01T04:49:31.566Z,99186.41
2022-12-01T04:51:58.448Z,99193.66
2022-12-01T04:54:25.996Z,99188.06
2022-12-01T04:56:53.051Z,99191.56
2022-12-01T04:59:19.879Z,99190.12
2022-12-01T05:01:48.225Z,99196.34
2022-12-01T05:04:15.782Z,99205.03
2022-12-01T05:06:43.042Z,99204.41
2022-12-01T05:09:17.210Z,99203.59
2022-12-01T05:11:45.004Z,99208.78
2022-12-01T05:14:11.785Z,99204.62
2022-12-01T05:16:38.842Z,99201.94
2022-12-01T05:19:24.844Z,99197.16
2022-12-01T05:21:52.111Z,99194.69
2022-12-01T05:24:20.113Z,99191.16
2022-12-01T05:26:47.132Z,99189.91
2022-12-01T05:29:14.124Z,99187.66
2022-12-01T05:31:41.218Z,99186.19
2022-12-01T05:34:08.371Z,99180.38
2022-12-01T05:36:35.250Z,99186.78
2022-12-01T05:39:02.101Z,99188.03
2022-12-01T05:41:28.851Z,99188.84
2022-12-01T05:43:55.635Z,99185.31
2022-12-01T05:46:22.556Z,99183.88
2022-12-01T05:48:49.407Z,99181.38
2022-12-01T05:51:17.303Z,99186.37
2022-12-01T05:53:44.801Z,99183.06
2022-12-01T05:56:12.178Z,99181.00
2022-12-01T05:58:39.397Z,99186.41
2022-12-01T06:01:06.191Z,99198.22
2022-12-01T06:03:33.138Z,99203.34
2022-12-01T06:05:59.982Z,99208.09
2022-12-01T06:08:26.961Z,99214.72
2022-12-01T06:10:53.761Z,99219.28
2022-12-01T06:13:20.609Z,99222.59
2022-12-01T06:15:56.302Z,99231.09
2022-12-01T06:18:23.950Z,99230.09
2022-12-01T06:20:50.725Z,99247.06
2022-12-01T06:23:17.528Z,99245.78
2022-12-01T06:25:44.574Z,99251.97
2022-12-01T06:28:11.344Z,99250.53
2022-12-01T06:30:38.196Z,99247.00
2022-12-01T06:33:05.091Z,99253.22
2022-12-01T06:35:31.921Z,99257.16
2022-12-01T06:37:58.768Z,99253.66
2022-12-01T06:40:25.610Z,99259.66
2022-12-01T06:42:52.478Z,99267.75
2022-12-01T06:45:19.330Z,99262.13
2022-12-01T06:47:48.541Z,99271.66
2022-12-01T06:50:15.422Z,99264.59
2022-12-01T06:52:42.196Z,99267.13
2022-12-01T06:55:09.289Z,99260.88
2022-12-01T06:57:36.221Z,99260.47
2022-12-01T07:00:04.447Z,99259.44
2022-12-01T07:02:31.747Z,99262.13
2022-12-01T07:04:58.665Z,99267.53
2022-12-01T07:07:25.506Z,99274.34
2022-12-01T07:09:52.365Z,99274.53
2022-12-01T07:12:19.136Z,99281.59
2022-12-01T07:14:45.987Z,99276.81
2022-12-01T07:17:13.878Z,99275.78
2022-12-01T07:19:40.738Z,99269.19
2022-12-01T07:22:07.538Z,99270.63
2022-12-01T07:24:34.414Z,99264.59
2022-12-01T07:27:01.226Z,99267.09
2022-12-01T07:29:28.023Z,99266.25
2022-12-01T07:31:55.014Z,99257.56
2022-12-01T07:34:21.801Z,99253.84
2022-12-01T07:36:48.634Z,99250.12
2022-12-01T07:51:39.854Z,99274.12
2022-12-01T07:54:07.815Z,99273.72
2022-12-01T07:56:34.627Z,99287.81
2022-12-01T07:59:01.375Z,99296.91
2022-12-01T08:01:28.132Z,99298.38
2022-12-01T08:03:57.526Z,99295.47
2022-12-01T08:06:25.598Z,99291.34
2022-12-01T08:08:52.895Z,99289.88
2022-12-01T08:11:25.696Z,99286.97
2022-12-01T08:13:53.470Z,99284.50
2022-12-01T08:16:22.546Z,99296.91
2022-12-01T08:18:49.957Z,99286.97
2022-12-01T08:21:18.776Z,99287.81
2022-12-01T08:23:45.647Z,99287.41
2022-12-01T08:26:15.461Z,99288.28
2022-12-01T08:28:43.450Z,99289.94
2022-12-01T08:31:14.813Z,99285.34
2022-12-01T08:33:41.758Z,99288.09
2022-12-01T08:36:09.126Z,99286.63
2022-12-01T08:38:36.248Z,99291.59
2022-12-01T08:41:08.392Z,99292.84
2022-12-01T08:46:34.977Z,99291.59
2022-12-01T08:49:03.083Z,99294.91
2022-12-01T08:51:30.208Z,99294.72
2022-12-01T08:53:58.563Z,99306.09
2022-12-01T08:56:29.324Z,99309.63
2022-12-01T08:58:56.221Z,99302.81
2022-12-01T09:01:23.206Z,99304.12
2022-12-01T09:04:05.318Z,99310.13
2022-12-01T09:06:43.334Z,99314.25
2022-12-01T09:09:12.698Z,99310.88
2022-12-01T09:11:40.331Z,99317.97
2022-12-01T09:14:07.100Z,99312.22
2022-12-01T09:16:33.939Z,99322.78
2022-12-01T09:19:00.875Z,99319.03
2022-12-01T09:21:32.788Z,99314.69
2022-12-01T09:24:01.017Z,99322.37
2022-12-01T09:26:28.730Z,99324.03
2022-12-01T09:28:58.072Z,99320.94
2022-12-01T09:31:25.466Z,99315.34
2022-12-01T09:33:56.580Z,99321.34
2022-12-01T09:36:24.053Z,99319.06
2022-12-01T09:38:50.835Z,99313.50
2022-12-01T09:41:26.178Z,99303.34
2022-12-01T09:44:06.030Z,99302.72
2022-12-01T09:46:41.521Z,99297.97
2022-12-01T09:49:22.852Z,99289.69
2022-12-01T09:51:54.700Z,99296.50
2022-12-01T09:54:21.736Z,99298.78
2022-12-01T09:56:53.329Z,99297.53
2022-12-01T09:59:26.321Z,99296.31
2022-12-01T10:02:00.316Z,99301.50
2022-12-01T10:04:41.902Z,99304.00
2022-12-01T10:07:29.782Z,99291.75
2022-12-01T10:10:00.097Z,99295.69
2022-12-01T10:12:32.331Z,99293.84
2022-12-01T10:15:09.349Z,99290.50
2022-12-01T10:17:52.641Z,99286.34
2022-12-01T10:20:28.560Z,99289.47
2022-12-01T10:23:16.687Z,99288.44
2022-12-01T10:26:10.627Z,99282.22
2022-12-01T10:29:09.798Z,99277.25
2022-12-01T10:31:53.253Z,99279.50
2022-12-01T10:34:24.400Z,99272.25
2022-12-01T10:36:51.375Z,99261.25
2022-12-01T10:39:38.546Z,99253.78
2022-12-01T10:42:35.647Z,99252.53
2022-12-01T10:45:15.797Z,99260.19
2022-12-01T10:48:07.151Z,99250.88
2022-12-01T10:50:34.463Z,99249.00
2022-12-01T10:53:01.391Z,99248.38
2022-12-01T10:55:35.000Z,99246.72
2022-12-01T10:58:13.753Z,99245.69
2022-12-01T11:00:58.957Z,99243.81
2022-12-01T11:03:35.890Z,99239.87
2022-12-01T11:06:05.924Z,99237.78
2022-12-01T11:08:46.771Z,99233.22
2022-12-01T11:11:33.656Z,99237.41
2022-12-01T11:14:05.136Z,99240.03
2022-12-01T11:16:36.944Z,99239.63
2022-12-01T11:19:31.143Z,99230.47
2022-12-01T11:22:00.705Z,99214.91
2022-12-01T11:24:42.529Z,99208.69
2022-12-01T11:27:31.736Z,99205.78
2022-12-01T11:30:04.934Z,99219.88
2022-12-01T11:32:35.598Z,99223.44
2022-12-01T11:35:05.065Z,99220.53
2022-12-01T11:37:38.035Z,99214.09
2022-12-01T11:40:17.600Z,99206.38
2022-12-01T11:42:49.504Z,99210.72
2022-12-01T11:45:25.031Z,99209.47
2022-12-01T11:48:20.863Z,99216.53
2022-12-01T11:51:01.565Z,99220.66
2022-12-01T11:53:31.250Z,99224.19
2022-12-01T11:56:13.246Z,99220.44
2022-12-01T11:58:40.360Z,99220.25
2022-12-01T12:01:22.125Z,99220.84
2022-12-01T12:04:18.209Z,99220.62
2022-12-01T12:07:13.579Z,99223.13
2022-12-01T12:09:54.643Z,99218.75
2022-12-01T12:12:34.212Z,99216.87
2022-12-01T12:15:12.283Z,99227.47
2022-12-01T12:17:55.131Z,99222.91
2022-12-01T12:20:37.169Z,99215.66
2022-12-01T12:23:18.135Z,99212.09
2022-12-01T12:26:03.596Z,99203.19
2022-12-01T12:28:39.603Z,99195.09
2022-12-01T12:31:22.380Z,99200.69
2022-12-01T12:34:23.713Z,99195.31
2022-12-01T12:37:04.964Z,99206.31
2022-12-01T12:39:51.255Z,99199.03
2022-12-01T12:42:33.611Z,99202.56
2022-12-01T12:45:19.127Z,99202.56
2022-12-01T12:48:11.282Z,99204.44
2022-12-01T12:51:05.304Z,99205.88
2022-12-01T12:53:49.559Z,99204.00
2022-12-01T12:56:22.080Z,99202.16
2022-12-01T12:59:03.199Z,99204.66
2022-12-01T13:02:09.793Z,99205.47
2022-12-01T13:05:05.721Z,99202.56
2022-12-01T13:07:56.751Z,99194.47
2022-12-01T13:10:34.641Z,99197.16
2022-12-01T13:13:19.919Z,99194.47
2022-12-01T13:15:50.347Z,99198.81
2022-12-01T13:18:24.846Z,99201.50
2022-12-01T13:20:53.661Z,99213.16
2022-12-01T13:23:22.052Z,99202.56
2022-12-01T13:25:54.478Z,99204.44
2022-12-01T13:28:26.243Z,99202.78
2022-12-01T13:31:06.903Z,99201.13
2022-12-01T13:33:36.213Z,99205.69
2022-12-01T13:36:45.110Z,99207.34
2022-12-01T13:39:06.633Z,99203.47
2022-12-01T13:41:39.652Z,99192.87
2022-12-01T13:44:30.127Z,99195.81
2022-12-01T13:47:01.577Z,99203.91
2022-12-01T13:49:33.787Z,99201.41
2022-12-01T13:52:16.014Z,99194.38
2022-12-01T13:55:00.202Z,99199.16
2022-12-01T13:57:29.781Z,99202.69
2022-12-01T13:59:59.576Z,99204.53
2022-12-01T14:02:28.800Z,99201.00
2022-12-01T14:05:15.667Z,99202.84
2022-12-01T14:07:43.497Z,99202.84
2022-12-01T14:10:21.344Z,99207.44
2022-12-01T14:12:50.647Z,99205.56
2022-12-01T14:15:42.463Z,99202.03
2022-12-01T14:18:18.363Z,99199.75
2022-12-01T14:20:47.703Z,99194.38
2022-12-01T14:23:34.690Z,99198.31
2022-12-01T14:26:13.191Z,99196.03
2022-12-01T14:28:55.144Z,99194.59
2022-12-01T14:31:23.460Z,99201.03
2022-12-01T14:34:18.954Z,99195.84
2022-12-01T14:36:53.449Z,99203.50
2022-12-01T14:39:26.278Z,99197.88
2022-12-01T14:42:12.674Z,99197.69
2022-12-01T14:44:44.933Z,99204.97
2022-12-01T14:47:11.723Z,99204.94
2022-12-01T14:49:47.544Z,99198.94
2022-12-01T14:52:38.987Z,99205.38
2022-12-01T14:55:19.881Z,99199.16
2022-12-01T14:57:50.387Z,99204.53
2022-12-01T15:00:23.934Z,99197.47
2022-12-01T15:02:57.370Z,99203.91
2022-12-01T15:05:27.425Z,99203.06
2022-12-01T15:08:18.708Z,99200.59
2022-12-01T15:10:54.884Z,99202.69
2022-12-01T15:13:30.538Z,99195.84
2022-12-01T15:16:00.688Z,99200.41
2022-12-01T15:18:37.272Z,99193.56
2022-12-01T15:21:13.809Z,99200.00
2022-12-01T15:24:04.850Z,99198.56
2022-12-01T15:26:34.433Z,99197.94
2022-12-01T15:29:15.701Z,99192.78
2022-12-01T15:31:49.377Z,99200.03
2022-12-01T15:34:20.169Z,99194.63
2022-12-01T15:36:48.337Z,99187.59
2022-12-01T15:39:21.426Z,99196.72
2022-12-01T15:41:53.954Z,99195.69
2022-12-01T15:44:42.668Z,99188.41
2022-12-01T15:47:43.739Z,99193.19
2022-12-01T15:50:26.541Z,99198.81
2022-12-01T15:52:53.448Z,99195.50
2022-12-01T15:55:30.452Z,99195.91
2022-12-01T15:57:59.151Z,99196.13
2022-12-01T16:00:26.810Z,99199.88
2022-12-01T16:02:59.421Z,99198.41
2022-12-01T16:05:29.329Z,99200.28
2022-12-01T16:08:13.517Z,99194.91
2022-12-01T16:10:40.579Z,99194.28
2022-12-01T16:13:35.391Z,99201.53
2022-12-01T16:16:31.605Z,99205.91
2022-12-01T16:19:02.377Z,99205.91
2022-12-01T16:21:33.652Z,99208.59
2022-12-01T16:24:02.842Z,99214.41
2022-12-01T16:26:30.600Z,99209.63
2022-12-01T16:28:58.173Z,99217.09
2022-12-01T16:31:27.150Z,99209.03
2022-12-01T16:34:13.761Z,99209.41
2022-12-01T16:36:46.010Z,99205.28
2022-12-01T16:39:16.358Z,99205.50
2022-12-01T16:41:47.971Z,99204.44
2022-12-01T16:44:30.620Z,99200.91
2022-12-01T16:46:57.384Z,99210.88
2022-12-01T16:49:24.193Z,99210.88
2022-12-01T16:51:56.077Z,99217.50
2022-12-01T16:54:24.274Z,99210.25
2022-12-01T16:56:51.396Z,99212.34
2022-12-01T16:59:18.617Z,99211.50
2022-12-01T17:01:45.525Z,99216.91
2022-12-01T17:04:12.671Z,99214.63
2022-12-01T17:06:39.530Z,99217.09
2022-12-01T17:09:06.781Z,99217.31
2022-12-01T17:11:33.598Z,99214.84
2022-12-01T17:14:00.349Z,99206.97
2022-12-01T17:16:27.700Z,99214.22
2022-12-01T17:18:54.856Z,99213.81
2022-12-01T17:21:22.002Z,99212.56
2022-12-01T17:23:48.797Z,99216.50
2022-12-01T17:26:22.816Z,99210.09
2022-12-01T17:28:50.091Z,99212.78
2022-12-01T17:31:17.293Z,99213.59
2022-12-01T17:33:44.228Z,99213.81
2022-12-01T17:36:13.217Z,99209.03
2022-12-01T17:38:43.408Z,99206.75
2022-12-01T17:41:16.874Z,99206.78
2022-12-01T17:43:44.314Z,99209.88
2022-12-01T17:46:12.778Z,99210.91
2022-12-01T17:48:43.268Z,99214.22
2022-12-01T17:51:13.296Z,99220.66
2022-12-01T17:53:40.599Z,99220.66
2022-12-01T17:56:09.691Z,99208.44
2022-12-01T17:58:37.548Z,99214.66
2022-12-01T18:01:05.477Z,99218.38
2022-12-01T18:03:32.420Z,99208.44
2022-12-01T18:06:01.602Z,99210.69
2022-12-01T18:08:31.138Z,99217.31
2022-12-01T18:11:03.173Z,99211.94
2022-12-01T18:13:30.082Z,99213.59
2022-12-01T18:15:57.444Z,99214.00
2022-12-01T18:18:24.574Z,99208.63
2022-12-01T18:20:51.546Z,99212.12
2022-12-01T18:23:18.619Z,99220.22
2022-12-01T18:25:46.992Z,99218.78
2022-12-01T18:28:14.962Z,99212.56
2022-12-01T18:30:42.169Z,99213.59
2022-12-01T18:33:12.744Z,99212.56
2022-12-01T18:35:44.883Z,99208.41
2022-12-01T18:38:12.113Z,99209.44
2022-12-01T18:40:39.893Z,99209.66
2022-12-01T18:43:07.079Z,99211.09
2022-12-01T18:45:33.913Z,99215.87
2022-12-01T18:48:00.954Z,99219.41
2022-12-01T18:50:28.221Z,99213.38
2022-12-01T18:52:55.068Z,99213.59
2022-12-01T18:55:22.195Z,99214.22
2022-12-01T18:57:48.997Z,99218.78
2022-12-01T19:00:16.511Z,99215.03
2022-12-01T19:02:43.971Z,99217.13
2022-12-01T19:05:11.351Z,99209.03
2022-12-01T19:07:38.667Z,99212.75
2022-12-01T19:10:06.603Z,99211.72
2022-12-01T19:12:39.360Z,99206.75
2022-12-01T19:15:08.947Z,99206.34
2022-12-01T19:17:36.263Z,99207.59
2022-12-01T19:20:05.112Z,99203.44
2022-12-01T19:22:33.148Z,99211.53
2022-12-01T19:25:00.570Z,99206.97
2022-12-01T19:27:29.002Z,99204.91
2022-12-01T19:29:56.312Z,99205.53
2022-12-01T19:32:23.442Z,99205.94
2022-12-01T19:34:50.730Z,99205.94
2022-12-01T19:37:22.461Z,99202.63
2022-12-01T19:39:49.901Z,99204.84
2022-12-01T19:42:17.177Z,99211.66
2022-12-01T19:44:44.420Z,99200.69
2022-12-01T19:47:11.735Z,99211.66
2022-12-01T19:49:38.597Z,99207.53
2022-12-01T19:52:08.629Z,99203.81
2022-12-01T19:54:38.617Z,99202.97
2022-12-01T19:57:05.545Z,99203.19
2022-12-01T19:59:32.579Z,99198.81
2022-12-01T20:01:59.870Z,99197.78
2022-12-01T20:04:27.245Z,99205.25
2022-12-01T20:06:54.532Z,99206.06
2022-12-01T20:09:21.733Z,99203.38
2022-12-01T20:11:49.033Z,99208.78
2022-12-01T20:14:22.221Z,99214.16
2022-12-01T20:16:49.733Z,99211.66
2022-12-01T20:19:19.820Z,99208.56
2022-12-01T20:21:47.352Z,99213.31
2022-12-01T20:24:17.831Z,99216.00
2022-12-01T20:26:49.021Z,99213.53
2022-12-01T20:29:26.869Z,99214.78
2022-12-01T20:31:57.976Z,99210.41
2022-12-01T20:34:34.377Z,99217.47
2022-12-01T20:37:03.011Z,99202.72
2022-12-01T20:39:32.915Z,99208.31
2022-12-01T20:42:00.782Z,99207.50
2022-12-01T20:44:28.010Z,99213.28
2022-12-01T20:46:55.420Z,99211.19
2022-12-01T20:49:23.022Z,99214.50
2022-12-01T20:51:50.347Z,99208.03
2022-12-01T20:54:27.715Z,99206.00
2022-12-01T20:56:55.892Z,99204.34
2022-12-01T20:59:23.683Z,99207.44
2022-12-01T21:01:50.997Z,99205.34
2022-12-01T21:04:17.766Z,99201.00
2022-12-01T21:06:44.584Z,99203.06
2022-12-01T21:09:13.439Z,99206.78
2022-12-01T21:12:07.077Z,99209.88
2022-12-01T21:14:41.912Z,99214.22
2022-12-01T21:17:34.231Z,99213.38
2022-12-01T21:20:21.986Z,99220.62
2022-12-01T21:22:50.099Z,99217.50
2022-12-01T21:25:22.804Z,99217.06
2022-12-01T21:27:50.223Z,99222.66
2022-12-01T21:30:21.979Z,99230.09
2022-12-01T21:32:49.882Z,99223.87
2022-12-01T21:35:22.238Z,99225.13
2022-12-01T21:37:49.519Z,99216.00
2022-12-01T21:40:22.683Z,99214.75
2022-12-01T21:42:50.069Z,99221.16
2022-12-01T21:45:32.121Z,99217.66
2022-12-01T21:48:17.161Z,99229.63
2022-12-01T21:50:49.256Z,99219.72
2022-12-01T21:53:20.533Z,99224.66
2022-12-01T21:55:47.989Z,99213.66
2022-12-01T21:58:30.187Z,99217.78
2022-12-01T22:00:58.978Z,99216.75
2022-12-01T22:03:45.104Z,99214.66
2022-12-01T22:06:34.678Z,99211.34
2022-12-01T22:09:12.248Z,99221.06
2022-12-01T22:11:39.052Z,99214.03
2022-12-01T22:14:08.781Z,99220.59
2022-12-01T22:16:40.528Z,99225.16
2022-12-01T22:19:16.439Z,99214.78
2022-12-01T22:21:48.135Z,99215.56
2022-12-01T22:24:22.018Z,99213.91
2022-12-01T22:27:03.265Z,99215.34
2022-12-01T22:29:33.859Z,99210.75
2022-12-01T22:32:23.858Z,99213.66
2022-12-01T22:34:57.671Z,99208.06
2022-12-01T22:37:35.168Z,99200.41
2022-12-01T22:40:02.296Z,99202.13
2022-12-01T22:42:34.651Z,99201.50
2022-12-01T22:45:14.906Z,99204.19
2022-12-01T22:47:41.654Z,99210.59
2022-12-01T22:50:27.207Z,99205.22
2022-12-01T22:52:55.926Z,99192.19
2022-12-01T22:55:22.757Z,99195.06
2022-12-01T22:57:49.487Z,99200.63
2022-12-01T23:00:19.137Z,99191.75
2022-12-01T23:02:48.534Z,99189.84
2022-12-01T23:05:27.518Z,99189.84
2022-12-01T23:07:55.332Z,99188.00
2022-12-01T23:10:33.737Z,99184.69
2022-12-01T23:13:08.781Z,99182.62
2022-12-01T23:15:40.543Z,99191.50
2022-12-01T23:18:28.095Z,99186.34
2022-12-01T23:21:01.942Z,99181.53
2022-12-01T23:23:30.966Z,99177.81
2022-12-01T23:25:58.945Z,99171.59
2022-12-01T23:28:25.670Z,99178.84
2022-12-01T23:30:56.014Z,99171.59
2022-12-01T23:33:25.981Z,99183.38
2022-12-01T23:36:07.015Z,99185.63
2022-12-01T23:38:39.827Z,99183.31
2022-12-01T23:41:12.577Z,99185.75
2022-12-01T23:43:42.806Z,99184.94
2022-12-01T23:46:22.398Z,99189.12
2022-12-01T23:49:04.874Z,99195.56
2022-12-01T23:51:36.167Z,99186.88
2022-12-01T23:54:29.012Z,99195.94
2022-12-01T23:56:58.190Z,99185.41
2022-12-01T23:59:25.583Z,99183.53
